Jeffco Stadium (Lakewood), Colorado
Current Conditions -  °F | °C
As of 8:49 AM on Sunday 23 Nov 2014 (Local Time) from KBJC Reporting Station
Broken Clouds Broken Clouds  
Wind Chill: 34°   Ceiling: 12000
Heat Index: 37°   Visibility: 30mi
Dew Point: 21°   Wind: 5mph
Humidity: 52%   Direction: 240°WSW
Pressure: 29.79"   Gusts: NA
Location:  39.72179°N, 105.1096°W
Report Text: KBJC 231549Z 24004KT 30SM FEW080 BKN120 03/M06 A2979
Loading
Personal Weather Stations






























Interactive Weather Map New forecast layout! Learn more

10-Day Weather Forecast

Advertisements
Track Severe Weather on mobile